Tiempo atmosférico en la estación meteorológica de Medina De Rioseco, Valladolid (731 m.)



Fecha
DESCASC
Temp. máxima en grados centígrados (hora)
DESCASC
Temp. mínima en grados centígrados (hora)
DESCASC
Temp. media en grados centígrados
DESCASC
Racha de viento máxima en m/sg (hora)
DESCASC
Velocidad máxima media en intervalos de 10 minutos(hora)
DESCASC
Precipitaciones diarias en mm
DESCASC
Precipitaciones de 00:00 a 06:00 en mm
DESCASC
Precipitaciones de 06:00 a 12:00 en mm
DESCASC
Precipitaciones de 12:00 a 18:00 en mm
DESCASC
Precipitaciones de 18:00 a 24:00 en mm
DESCASC
31-03-2020 9.1 (14:20) -0.2 (03:30) 4.5 12.22 (13:20) 7.22 (11:00) 0.4 0 0 0.2 0.2
29-03-2020 16.4 (17:30) -0.6 (-00:0) 7.9 13.33 (21:30) 7.78 (21:40) 0 0 0 0 0
28-03-2020 16.7 (17:10) -3 (-00:0) 6.9 6.94 (16:00) 2.78 (00:20) 0 0 0 0 0
27-03-2020 12.8 (16:40) -2 (-00:0) 5.4 10.28 (03:30) 6.67 (03:30) 0 0 0 0 0
26-03-2020 12.8 (16:50) -2.9 (-00:0) 5 9.44 (23:00) 4.72 (23:10) 0 0 0 0 0
25-03-2020 17.6 (16:50) -0.4 (00:00) 8.6 5.83 (12:00) 3.33 (12:00) 0 0 0 0 0
24-03-2020 15.9 (17:40) 3.5 (00:00) 9.7 12.22 (16:00) 5.28 (11:10) 0 0 0 0 0
23-03-2020 14.9 (14:50) 3.4 (00:00) 9.1 10.56 (02:00) 6.11 (02:00) 0.8 0 0 0 0.8
22-03-2020 15.4 (15:40) 6.1 (04:20) 10.7 10.56 (22:30) 6.39 (22:30) 1.6 1.6 0 0 0
21-03-2020 13.1 (14:50) 4.4 (00:00) 8.8 6.11 (15:00) 4.17 (14:10) 0 0 0 0 0
20-03-2020 15.9 (15:30) 6.1 (00:00) 11 7.22 (14:30) 5 (17:40) 0 0 0 0 0
19-03-2020 16.4 (15:00) 4.1 (00:00) 10.2 4.72 (14:50) 2.5 (00:50) 0 0 0 0 0
18-03-2020 16.5 (17:00) 3.7 (00:00) 10.1 6.39 (10:40) 3.89 (00:30) 0 0 0 0 0
17-03-2020 14 (15:50) 5.1 (00:00) 9.5 15.83 (01:50) 8.61 (01:20) 0 0 0 0 0
16-03-2020 8.2 (15:00) 0.2 (00:00) 4.2 15.56 (01:00) 8.33 (16:10) 12.8 6.8 6 0 0
15-03-2020 18.4 (14:30) -1.8 (-00:0) 8.3 14.72 (16:00) 8.61 (15:30) 2.6 0 0 0 2.6
14-03-2020 17.7 (16:40) -1.8 (-00:0) 8 4.72 (10:30) 3.06 (10:30) 0 0 0 0 0
13-03-2020 14.1 (15:20) 4.6 (22:50) 9.4 13.89 (09:30) 8.33 (09:00) 0 0 0 0 0
12-03-2020 18.8 (14:10) 6 (00:00) 12.4 13.06 (19:40) 6.67 (22:40) 0 0 0 0 0
11-03-2020 22.3 (16:20) -0.1 (00:00) 11.1 6.67 (16:10) 4.44 (15:30) 0 0 0 0 0
10-03-2020 20.6 (17:40) 1.6 (00:00) 11.1 8.89 (14:00) 5 (14:00) 0 0 0 0 0
09-03-2020 14.8 (16:20) -0.1 (00:00) 7.4 6.67 (14:00) 3.89 (13:20) 0 0 0 0 0
08-03-2020 13.4 (18:00) -2 (-00:0) 5.7 10 (18:00) 6.39 (18:10) 0 0 0 0 0
07-03-2020 13.5 (16:40) -1.6 (-00:0) 5.9 6.39 (13:30) 3.89 (16:50) 0 0 0 0 0
06-03-2020 10.1 (15:00) 0.9 (00:00) 5.5 15.83 (11:00) 10 (10:40) 0 0 0 0 0
05-03-2020 12.3 (15:40) 3.2 (00:00) 7.8 17.5 (07:20) 11.11 (09:00) 2 0.2 1 0.8 0
04-03-2020 15.6 (14:30) 9.6 (07:10) 12.6 12.78 (06:00) 7.78 (17:10) 0 0 0 0 0

Gráficas

Temp. máximas Temp. mínimas Temp. medias Precipitaciones Rachas de viento máximas Velocidades máximas media en intervalos de 10 minutos

Datos horarios

Fecha y hora oficial Temperatura (ºC) Velocidad del viento (km/h) Dirección del viento Racha (km/h) Dirección de racha Precipitación (mm) Presión (hPa) Tendencia (hPa) Humedad (%)
2020-04-02 23:00:00 -- -- -- -- -- -- -- -- --
2020-04-02 22:00:00 -- -- -- -- -- -- -- -- --
2020-04-02 21:00:00 -- -- -- -- -- -- -- -- --
2020-04-02 20:00:00 -- -- -- -- -- -- -- -- --
2020-04-02 19:00:00 -- -- -- -- -- -- -- -- --
2020-04-02 18:00:00 -- -- -- -- -- -- -- -- --
2020-04-02 17:00:00 -- -- -- -- -- -- -- -- --
2020-04-02 16:00:00 -- -- -- -- -- -- -- -- --
2020-04-02 15:00:00 -- -- -- -- -- -- -- -- --
2020-04-02 14:00:00 -- -- -- -- -- -- -- -- --
2020-04-02 13:00:00 -- -- -- -- -- -- -- -- --
2020-04-02 12:00:00 -- -- -- -- -- -- -- -- --
2020-04-02 11:00:00 -- -- -- -- -- -- -- -- --
2020-04-02 10:00:00 -- -- -- -- -- -- -- -- --
2020-04-02 09:00:00 -- -- -- -- -- -- -- -- --
2020-04-02 08:00:00 -- -- -- -- -- -- -- -- --
2020-04-02 07:00:00 -- -- -- -- -- -- -- -- --
2020-04-02 06:00:00 -- -- -- -- -- -- -- -- --
2020-04-02 05:00:00 -- -- -- -- -- -- -- -- --
2020-04-02 04:00:00 -- -- -- -- -- -- -- -- --
2020-04-02 03:00:00 -- -- -- -- -- -- -- -- --
2020-04-02 02:00:00 -- -- -- -- -- -- -- -- --
2020-04-02 01:00:00 -- -- -- -- -- -- -- -- --
2020-04-02 00:00:00 -- -- -- -- -- -- -- -- --
2020-04-01 23:00:00 -- -- -- -- -- -- -- -- --
2020-04-01 22:00:00 -- -- -- -- -- -- -- -- --
2020-04-01 21:00:00 -- -- -- -- -- -- -- -- --
2020-04-01 20:00:00 -- -- -- -- -- -- -- -- --
2020-04-01 19:00:00 -- -- -- -- -- -- -- -- --
2020-04-01 18:00:00 -- -- -- -- -- -- -- -- --
2020-04-01 17:00:00 -- -- -- -- -- -- -- -- --
2020-04-01 16:00:00 -- -- -- -- -- -- -- -- --
2020-04-01 15:00:00 -- -- -- -- -- -- -- -- --
2020-04-01 14:00:00 -- -- -- -- -- -- -- -- --
2020-04-01 13:00:00 -- -- -- -- -- -- -- -- --
2020-04-01 12:00:00 -- -- -- -- -- -- -- -- --
2020-04-01 11:00:00 -- -- -- -- -- -- -- -- --
2020-04-01 10:00:00 -- -- -- -- -- -- -- -- --
2020-04-01 09:00:00 2 9 Nordeste 11 Nordeste 0 -- -- 95
2020-04-01 08:00:00 2.4 5 Nordeste 15 Sudeste 0 -- -- 93
2020-04-01 07:00:00 2.2 5 Sudeste 11 Sudeste 0 -- -- 95
2020-04-01 06:00:00 2.7 0 Calma 8 Este 0 -- -- 91
2020-04-01 05:00:00 4.5 6 Nordeste 12 Nordeste 0 -- -- 92
2020-04-01 04:00:00 5.8 5 Este 16 Sudeste 0 -- -- 91
2020-04-01 03:00:00 5.9 7 Este 15 Este 0.2 -- -- 91
2020-04-01 02:00:00 5.8 7 Este 19 Sudeste 2.2 -- -- 91
2020-04-01 01:00:00 6 9 Este 26 Sudeste 1.4 -- -- 89
2020-04-01 00:00:00 6.6 12 Sudeste 25 Sudeste 0 -- -- 84
2020-03-31 23:00:00 6.1 12 Este 24 Sudeste 0 -- -- 85
2020-03-31 22:00:00 5.7 10 Este 30 Este 0 -- -- 84
2020-03-31 21:00:00 6.6 13 Este 30 Este 0 -- -- 82
2020-03-31 20:00:00 8 17 Este 31 Este 0 -- -- 78
2020-03-31 19:00:00 8 14 Este 31 Este 0.2 -- -- 77
2020-03-31 18:00:00 7.7 12 Este 34 Este 0.2 -- -- 76
2020-03-31 17:00:00 8.3 17 Este 36 Este 0 -- -- 69
2020-03-31 16:00:00 8.1 21 Este 43 Este 0 -- -- 69
2020-03-31 15:00:00 9 18 Este 40 Sudeste 0 -- -- 66
2020-03-31 14:00:00 9 22 Este 44 Nordeste 0 -- -- 63
2020-03-31 13:00:00 7 23 Este 40 Este 0 -- -- 66
2020-03-31 12:00:00 5 23 Este 42 Este 0 -- -- 66
2020-03-31 11:00:00 3.7 26 Este 40 Este 0 -- -- 67
2020-03-31 10:00:00 1.9 16 Este 33 Este 0 -- -- 72
2020-03-31 09:00:00 0.7 14 Este 35 Nordeste 0 -- -- 75
2020-03-31 08:00:00 0 16 Este 35 Este 0 -- -- 78
2020-03-31 07:00:00 -0.2 20 Este 36 Este 0 -- -- 79
2020-03-31 06:00:00 0 19 Este 33 Este 0 -- -- 78
2020-03-31 05:00:00 0 17 Este 34 Este 0 -- -- 77
2020-03-31 04:00:00 -0.1 16 Este 32 Este 0 -- -- 78
2020-03-31 03:00:00 0.2 17 Este 32 Este 0 -- -- 77
2020-03-31 02:00:00 0.3 15 Este 29 Este 0 -- -- 75
2020-03-31 01:00:00 0.3 15 Este 33 Este 0 -- -- 72
2020-03-31 00:00:00 0.7 18 Este 40 Este 0 -- -- 69
2020-03-30 23:00:00 0.9 15 Este 35 Este 0 -- -- 67
2020-03-30 22:00:00 1.4 18 Este 35 Este 0 -- -- 65
2020-03-30 21:00:00 2.3 19 Este 36 Este 0 -- -- 59
2020-03-30 20:00:00 3.6 18 Este 40 Este 0 -- -- 53
2020-03-30 19:00:00 4.9 24 Este 37 Este 0 -- -- 46
2020-03-30 18:00:00 5.1 21 Este 43 Este 0 -- -- 46
2020-03-30 17:00:00 5.6 21 Este 43 Este 0 -- -- 44
2020-03-30 16:00:00 5.7 22 Este 51 Este 0 -- -- 46
2020-03-30 15:00:00 5.3 21 Este 42 Este 0 -- -- 50
2020-03-30 14:00:00 4.9 21 Este 39 Este 0 -- -- 51
2020-03-30 13:00:00 3.5 20 Este 43 Este 0 -- -- 59
2020-03-30 12:00:00 2.8 21 Este 40 Este 0 -- -- 65
2020-03-30 11:00:00 2.5 18 Este 38 Este 0 -- -- 67
2020-03-30 10:00:00 2 22 Este 39 Este 0 -- -- 71
2020-03-30 09:00:00 1.7 17 Este 30 Este 0 -- -- 75
2020-03-30 08:00:00 1.7 16 Este 30 Este 0 -- -- 75
2020-03-30 07:00:00 2.1 15 Este 37 Este 0 -- -- 80
2020-03-30 06:00:00 2 17 Este 46 Este 0.2 -- -- 84
2020-03-30 05:00:00 2.9 21 Este 42 Este 0 -- -- 79
2020-03-30 04:00:00 3.9 23 Este 48 Este 0 -- -- 74
2020-03-30 03:00:00 4.3 22 Este 46 Este 0 -- -- 73
2020-03-30 02:00:00 4.5 19 Este 38 Este 0 -- -- 77
2020-03-30 01:00:00 5.1 20 Este 41 Este 0 -- -- 78
2020-03-30 00:00:00 6.2 22 Este 39 Este 0 -- -- 75
2020-03-29 23:00:00 6.2 20 Este 42 Nordeste 0 -- -- 76
2020-03-29 22:00:00 7 25 Este 48 Este 0 -- -- 74
2020-03-29 21:00:00 8.6 23 Este 47 Este 0 -- -- 63
2020-03-29 20:00:00 12 23 Este 39 Nordeste 0 -- -- 47
2020-03-29 19:00:00 15.4 10 Este 22 Nordeste 0 -- -- 41
2020-03-29 18:00:00 16.2 9 Nordeste 18 Este 0 -- -- 37
2020-03-29 17:00:00 16.2 8 Nordeste 16 Este 0 -- -- 37
2020-03-29 16:00:00 15.9 3 Este 15 Norte 0 -- -- 38
2020-03-29 15:00:00 15.3 8 Sudeste 20 Este 0 -- -- 40
2020-03-29 14:00:00 13.5 8 Este 19 Nordeste 0 -- -- 46
2020-03-29 13:00:00 12.3 9 Nordeste 19 Nordeste 0 -- -- 50
2020-03-29 12:00:00 9.5 12 Nordeste 22 Nordeste 0 -- -- 66
2020-03-29 11:00:00 7 11 Este 21 Nordeste 0 -- -- 75
2020-03-29 10:00:00 2.6 6 Nordeste 13 Nordeste 0 -- -- 91
2020-03-29 09:00:00 0.2 5 Este 9 Este 0 -- -- 90
2020-03-29 08:00:00 -0.3 6 Nordeste 13 Nordeste 0 -- -- 90
2020-03-29 07:00:00 0.5 9 Nordeste 15 Nordeste 0 -- -- 90
2020-03-29 06:00:00 -0.2 5 Este 10 Este 0 -- -- 89
2020-03-29 05:00:00 0.4 6 Este 10 Este 0 -- -- 88
2020-03-29 03:00:00 3.2 8 Nordeste 14 Nordeste 0 -- -- 80
2020-03-29 01:00:00 2.8 9 Nordeste 14 Nordeste 0 -- -- 80
2020-03-29 00:00:00 2.5 6 Este 15 Este 0 -- -- 81
2020-03-28 23:00:00 2 0 Calma 5 Sudeste 0 -- -- 80
2020-03-28 22:00:00 3 0 Calma 3 Sur 0 -- -- 75
2020-03-28 21:00:00 6.1 0 Calma 7 Este 0 -- -- 67
2020-03-28 20:00:00 10.2 5 Nordeste 6 Este 0 -- -- 54
2020-03-28 19:00:00 14 3 Nordeste 12 Nordeste 0 -- -- 44
2020-03-28 18:00:00 15.5 7 Nordeste 12 Este 0 -- -- 35
2020-03-28 17:00:00 16.5 4 Oeste 13 Nordeste 0 -- -- 31
2020-03-28 16:00:00 15.7 10 Este 25 Este 0 -- -- 36
2020-03-28 15:00:00 15.2 5 Este 17 Nordeste 0 -- -- 38
2020-03-28 14:00:00 14.6 4 Oeste 16 Nordeste 0 -- -- 40
2020-03-28 13:00:00 13.4 6 Sudeste 22 Sudeste 0 -- -- 43
2020-03-28 12:00:00 11.3 7 Nordeste 15 Nordeste 0 -- -- 45
2020-03-28 11:00:00 8.4 6 Nordeste 12 Nordeste 0 -- -- 57
2020-03-28 10:00:00 5 4 Norte 8 Este 0 -- -- 71
2020-03-28 09:00:00 1.4 5 Este 9 Este 0 -- -- 81
2020-03-28 08:00:00 -2.1 5 Este 13 Nordeste 0 -- -- 88
2020-03-28 07:00:00 -2.8 6 Nordeste 9 Nordeste 0 -- -- 86
2020-03-28 06:00:00 -2.1 5 Nordeste 9 Nordeste 0 -- -- 88
2020-03-28 05:00:00 -2.3 3 Nordeste 5 Este 0 -- -- 86
2020-03-28 04:00:00 -1.8 3 Este 6 Este 0 -- -- 85
2020-03-28 03:00:00 -1.4 4 Sudeste 10 Este 0 -- -- 82
2020-03-28 02:00:00 -0.1 5 Este 9 Nordeste 0 -- -- 79
2020-03-28 01:00:00 1 4 Nordeste 17 Este 0 -- -- 75
2020-03-28 00:00:00 1.4 4 Oeste 12 Oeste 0 -- -- 71
2020-03-27 23:00:00 5.1 5 Este 20 Este 0 -- -- 59
2020-03-27 22:00:00 1.7 4 Sudeste 11 Nordeste 0 -- -- 68
2020-03-27 21:00:00 2.5 4 Sudeste 12 Sur 0 -- -- 66
2020-03-27 20:00:00 8.3 6 Este 9 Sur 0 -- -- 49
2020-03-27 19:00:00 11.7 4 Sudeste 17 Sur 0 -- -- 40
2020-03-27 18:00:00 12.3 12 Sudeste 29 Sudeste 0 -- -- 34
2020-03-27 17:00:00 12.6 15 Sudeste 29 Sudeste 0 -- -- 32
2020-03-27 16:00:00 12.3 16 Este 34 Sur 0 -- -- 35
2020-03-27 15:00:00 11.6 18 Sudeste 33 Este 0 -- -- 35
2020-03-27 14:00:00 10.7 17 Este 33 Este 0 -- -- 43
2020-03-27 13:00:00 9.2 18 Este 33 Este 0 -- -- 45
2020-03-27 12:00:00 7.9 15 Este 34 Este 0 -- -- 50
2020-03-27 11:00:00 5.7 15 Este 30 Este 0 -- -- 60
2020-03-27 10:00:00 3.6 18 Este 35 Este 0 -- -- 72
2020-03-27 09:00:00 1.4 13 Este 27 Este 0 -- -- 79
2020-03-27 08:00:00 -1.8 13 Nordeste 27 Nordeste 0 -- -- 84
2020-03-27 07:00:00 -1.1 15 Este 26 Este 0 -- -- 82
2020-03-27 06:00:00 -1.8 7 Nordeste 22 Este 0 -- -- 82
2020-03-27 05:00:00 0.1 15 Este 28 Este 0 -- -- 74
2020-03-27 04:00:00 1.5 18 Este 37 Este 0 -- -- 66
2020-03-27 03:00:00 1.1 11 Este 25 Este 0 -- -- 72
2020-03-27 02:00:00 1.7 12 Este 26 Sudeste 0 -- -- 72
2020-03-27 01:00:00 2.4 12 Este 27 Este 0 -- -- 71
2020-03-27 00:00:00 3.3 15 Este 29 Este 0 -- -- 70
2020-03-26 23:00:00 4 16 Este 34 Este 0 -- -- 72
2020-03-26 22:00:00 5 12 Este 30 Sudeste 0 -- -- 67
2020-03-26 21:00:00 6.1 13 Sudeste 30 Sudeste 0 -- -- 61
2020-03-26 20:00:00 7.9 13 Sudeste 24 Este 0 -- -- 56
2020-03-26 19:00:00 11.4 11 Este 20 Este 0 -- -- 49
2020-03-26 18:00:00 12.4 7 Sudeste 17 Este 0 -- -- 39
2020-03-26 17:00:00 12.7 9 Este 19 Sudeste 0 -- -- 38
2020-03-26 16:00:00 12.6 7 Nordeste 17 Sudeste 0 -- -- 39
2020-03-26 15:00:00 11.7 10 Nordeste 19 Nordeste 0 -- -- 39
2020-03-26 14:00:00 11.2 7 Norte 16 Nordeste 0 -- -- 39
2020-03-26 13:00:00 10.6 8 Este 14 Este 0 -- -- 39
2020-03-26 12:00:00 9.8 8 Este 14 Nordeste 0 -- -- 51
2020-03-26 11:00:00 8.5 8 Sudeste 14 Nordeste 0 -- -- 56
2020-03-26 10:00:00 6 3 Este 9 Nordeste 0 -- -- 72
2020-03-26 09:00:00 1.6 7 Nordeste 10 Nordeste 0 -- -- 84
2020-03-26 08:00:00 -1.7 3 Nordeste 7 Nordeste 0 -- -- 90
2020-03-26 07:00:00 -2.3 3 Este 6 Sudeste 0 -- -- 88
2020-03-26 06:00:00 -1.5 5 Nordeste 9 Nordeste 0 -- -- 87
2020-03-26 05:00:00 -0.3 3 Sudeste 10 Nordeste 0 -- -- 83
2020-03-26 04:00:00 2.3 6 Este 15 Este 0 -- -- 79
2020-03-26 03:00:00 -0.4 3 Este 9 Sudeste 0 -- -- 86
2020-03-26 02:00:00 -1 0 Calma 7 Este 0 -- -- 84
2020-03-26 01:00:00 0.8 0 Calma 8 Sudeste 0 -- -- 81
2020-03-26 00:00:00 2.7 2 Sur 9 Nordeste 0 -- -- 74
2020-03-25 23:00:00 4.9 6 Este 14 Nordeste 0 -- -- 69
2020-03-25 22:00:00 7.8 8 Nordeste 14 Nordeste 0 -- -- 60
2020-03-25 21:00:00 9.5 8 Nordeste 15 Nordeste 0 -- -- 59
2020-03-25 20:00:00 11.7 3 Sur 8 Sur 0 -- -- 58
2020-03-25 19:00:00 16 4 Este 8 Nordeste 0 -- -- 42
2020-03-25 18:00:00 17.4 5 Sur 11 Este 0 -- -- 37
2020-03-25 17:00:00 17.3 5 Este 13 Sur 0 -- -- 34
2020-03-25 16:00:00 17.1 8 Sudeste 17 Sudeste 0 -- -- 33
2020-03-25 15:00:00 16.6 4 Nordeste 19 Norte 0 -- -- 39
2020-03-25 14:00:00 16 7 Norte 19 Noroeste 0 -- -- 42
2020-03-25 13:00:00 14.8 10 Noroeste 19 Noroeste 0 -- -- 60
2020-03-25 12:00:00 13.1 12 Oeste 21 Noroeste 0 -- -- 70
2020-03-25 11:00:00 10.9 7 Oeste 14 Oeste 0 -- -- 79
2020-03-25 10:00:00 8 6 Oeste 10 Oeste 0 -- -- 80
2020-03-25 09:00:00 4.2 3 Noroeste 4 Noroeste 0 -- -- 93
2020-03-25 08:00:00 0.2 0 Calma 8 Sur 0 -- -- 94
2020-03-25 07:00:00 0 0 Calma 3 Sudoeste 0 -- -- 92
2020-03-25 06:00:00 0.8 2 Sudeste 8 Este 0 -- -- 92
2020-03-25 05:00:00 0.9 5 Este 12 Nordeste 0 -- -- 92
2020-03-25 04:00:00 1.6 6 Nordeste 10 Nordeste 0 -- -- 92
2020-03-25 03:00:00 1.6 4 Este 10 Nordeste 0 -- -- 89
2020-03-25 02:00:00 3 5 Nordeste 9 Nordeste 0 -- -- 89
2020-03-25 01:00:00 3.6 3 Este 8 Este 0 -- -- 87
2020-03-25 00:00:00 5 7 Nordeste 13 Nordeste 0 -- -- 85
2020-03-24 23:00:00 4.7 3 Nordeste 11 Sudeste 0 -- -- 84
2020-03-24 22:00:00 5.5 6 Sur 11 Sur 0 -- -- 79
2020-03-24 21:00:00 8.9 3 Este 12 Sudeste 0 -- -- 70
2020-03-24 20:00:00 11.4 8 Sudeste 14 Sudeste 0 -- -- 62
2020-03-24 19:00:00 13.9 5 Sudeste 18 Este 0 -- -- 55
2020-03-24 18:00:00 15.6 11 Sudeste 24 Sudeste 0 -- -- 48
2020-03-24 17:00:00 15.8 12 Sudeste 28 Sudeste 0 -- -- 47
2020-03-24 16:00:00 15.6 18 Sudeste 44 Sudeste 0 -- -- 48
2020-03-24 15:00:00 15.4 14 Este 32 Sudeste 0 -- -- 55
2020-03-24 14:00:00 14.5 16 Este 31 Este 0 -- -- 56
2020-03-24 13:00:00 14.1 17 Este 32 Este 0 -- -- 60
2020-03-24 12:00:00 13.2 18 Este 33 Este 0 -- -- 65
2020-03-24 11:00:00 11.8 19 Este 36 Este 0 -- -- 70
2020-03-24 10:00:00 9.5 14 Este 25 Nordeste 0 -- -- 85
2020-03-24 09:00:00 7.1 17 Este 31 Este 0 -- -- 89
2020-03-24 08:00:00 3.9 4 Norte 13 Nordeste 0 -- -- 95
2020-03-24 07:00:00 3.7 6 Nordeste 15 Nordeste 0 -- -- 94
2020-03-24 06:00:00 4 7 Nordeste 15 Norte 0 -- -- 93
2020-03-24 05:00:00 4 7 Norte 17 Nordeste 0 -- -- 92
2020-03-24 04:00:00 4.1 8 Nordeste 14 Nordeste 0 -- -- 91
2020-03-24 03:00:00 4.3 6 Nordeste 14 Nordeste 0 -- -- 90
2020-03-24 02:00:00 4.1 3 Norte 12 Este 0 -- -- 86
2020-03-24 01:00:00 6.4 7 Este 17 Este 0 -- -- 85
2020-03-24 00:00:00 7.3 8 Este 19 Este 0 -- -- 83
2020-03-23 23:00:00 8.1 11 Este 21 Este 0 -- -- 80
2020-03-23 22:00:00 8.1 12 Este 19 Este 0 -- -- 79
2020-03-23 21:00:00 10.1 9 Sudeste 24 Este 0 -- -- 70
2020-03-23 20:00:00 11 9 Este 21 Este 0 -- -- 67
2020-03-23 19:00:00 12.8 8 Este 27 Este 0.8 -- -- 67
2020-03-23 18:00:00 13.9 10 Este 27 Este 0 -- -- 64
2020-03-23 17:00:00 14.1 13 Sudeste 24 Este 0 -- -- 50
2020-03-23 16:00:00 14.4 12 Este 30 Este 0 -- -- 54
2020-03-23 15:00:00 14.8 15 Este 30 Sudeste 0 -- -- 56
2020-03-23 14:00:00 13.3 14 Este 29 Este 0 -- -- 60
2020-03-23 13:00:00 13.6 18 Este 32 Este 0 -- -- 61
2020-03-23 12:00:00 12.6 17 Este 32 Sudeste 0 -- -- 69
2020-03-23 11:00:00 10.6 16 Este 31 Este 0 -- -- 78
2020-03-23 10:00:00 8.4 16 Este 28 Este 0 -- -- 86
2020-03-23 09:00:00 6.3 14 Este 25 Sudeste 0 -- -- 89
2020-03-23 08:00:00 4.4 9 Nordeste 21 Este 0 -- -- 93
2020-03-23 07:00:00 4.5 14 Este 27 Este 0 -- -- 92
2020-03-23 06:00:00 4.9 16 Este 36 Este 0 -- -- 91
2020-03-23 05:00:00 5.3 17 Este 32 Este 0 -- -- 90
2020-03-23 04:00:00 5.2 13 Este 28 Este 0 -- -- 90
2020-03-23 03:00:00 5.9 12 Este 35 Este 0 -- -- 89
2020-03-23 02:00:00 6.5 22 Este 38 Este 0 -- -- 88
2020-03-23 01:00:00 7 20 Este 37 Este 0 -- -- 86
2020-03-23 00:00:00 7.7 17 Este 36 Este 0 -- -- 84
2020-03-22 23:00:00 8.4 20 Este 38 Este 0 -- -- 81
2020-03-22 22:00:00 9.5 15 Este 28 Este 0 -- -- 77
2020-03-22 21:00:00 9.7 10 Este 14 Este 0 -- -- 76
2020-03-22 20:00:00 10 4 Nordeste 6 Nordeste 0 -- -- 78
2020-03-22 19:00:00 11 3 Sudeste 26 Sudeste 0 -- -- 74
2020-03-22 18:00:00 13.4 18 Sudeste 30 Sudeste 0 -- -- 63
2020-03-22 17:00:00 14.5 11 Oeste 24 Sur 0 -- -- 63
2020-03-22 16:00:00 14 17 Sur 24 Sur 0 -- -- 67
2020-03-22 15:00:00 14.7 6 Nordeste 14 Nordeste 0 -- -- 63
2020-03-22 14:00:00 13.9 7 Este 15 Este 0 -- -- 68
2020-03-22 13:00:00 12.3 7 Este 15 Nordeste 0 -- -- 73
2020-03-22 12:00:00 11.4 8 Este 20 Este 0 -- -- 81
2020-03-22 11:00:00 9.8 8 Nordeste 17 Nordeste 0 -- -- 85
2020-03-22 10:00:00 9.3 6 Nordeste 11 Este 0 -- -- 88
2020-03-22 09:00:00 7.9 3 Este 6 Este 0 -- -- 92
2020-03-22 08:00:00 6.9 0 Calma 6 Nordeste 0 -- -- 94
2020-03-22 07:00:00 6.7 3 Este 10 Sur 0 -- -- 93
2020-03-22 06:00:00 6.5 5 Sur 8 Sudeste 0 -- -- 94
2020-03-22 05:00:00 6.4 3 Nordeste 8 Sur 0 -- -- 93
2020-03-22 04:00:00 6.4 4 Nordeste 7 Nordeste 0 -- -- 92
2020-03-22 03:00:00 7 2 Nordeste 6 Sudoeste 0.4 -- -- 91
2020-03-22 02:00:00 7.2 3 Sur 10 Nordeste 1 -- -- 90
2020-03-22 01:00:00 7.6 5 Sudoeste 14 Sur 0.2 -- -- 88
2020-03-22 00:00:00 8.2 5 Sur 10 Sudoeste 0 -- -- 90
2020-03-21 23:00:00 8.5 6 Sudoeste 12 Sudoeste 0 -- -- 90
2020-03-21 22:00:00 8.9 6 Oeste 12 Oeste 0 -- -- 88
2020-03-21 21:00:00 9.5 6 Oeste 13 Oeste 0 -- -- 87
2020-03-21 20:00:00 10.1 9 Oeste 15 Oeste 0 -- -- 83
2020-03-21 19:00:00 10.9 9 Sudoeste 19 Sudoeste 0 -- -- 75
2020-03-21 18:00:00 12.1 10 Oeste 19 Oeste 0 -- -- 74
2020-03-21 17:00:00 12.6 12 Oeste 20 Oeste 0 -- -- 73
2020-03-21 16:00:00 12.5 12 Oeste 16 Oeste 0 -- -- 70
2020-03-21 15:00:00 12.9 13 Oeste 22 Oeste 0 -- -- 69
2020-03-21 14:00:00 12.2 13 Oeste 20 Oeste 0 -- -- 76
2020-03-21 13:00:00 12 8 Oeste 17 Sudoeste 0 -- -- 77
2020-03-21 12:00:00 12.1 3 Norte 12 Este 0 -- -- 76
2020-03-21 11:00:00 10.6 5 Este 15 Nordeste 0 -- -- 84
2020-03-21 10:00:00 8.6 8 Nordeste 15 Nordeste 0 -- -- 89
2020-03-21 09:00:00 6.3 6 Este 15 Nordeste 0 -- -- 93
2020-03-21 08:00:00 5 8 Nordeste 12 Nordeste 0 -- -- 93
2020-03-21 07:00:00 5 6 Nordeste 11 Nordeste 0 -- -- 92
2020-03-21 06:00:00 4.4 3 Este 13 Este 0 -- -- 92
2020-03-21 05:00:00 4.8 8 Nordeste 13 Nordeste 0 -- -- 92
2020-03-21 04:00:00 6.1 3 Nordeste 11 Sudeste 0 -- -- 88
2020-03-21 03:00:00 7.4 8 Sudeste 21 Sudeste 0 -- -- 89
2020-03-21 02:00:00 5.2 2 Noroeste 9 Nordeste 0 -- -- 92
2020-03-21 01:00:00 5.5 4 Nordeste 9 Sur 0 -- -- 92
2020-03-21 00:00:00 6.5 4 Nordeste 11 Nordeste 0 -- -- 92
2020-03-20 23:00:00 6.8 3 Nordeste 10 Sur 0 -- -- 90
2020-03-20 22:00:00 7.5 3 Sudeste 8 Sudeste 0 -- -- 88
2020-03-20 21:00:00 9.2 5 Sudeste 9 Sudeste 0 -- -- 88
2020-03-20 20:00:00 9.9 5 Sudeste 8 Sur 0 -- -- 86
2020-03-20 19:00:00 11.3 3 Noroeste 13 Noroeste 0 -- -- 82
2020-03-20 18:00:00 12 12 Oeste 24 Noroeste 0 -- -- 80
2020-03-20 17:00:00 13.8 18 Oeste 26 Oeste 0 -- -- 75
2020-03-20 16:00:00 15.3 15 Sur 25 Sur 0 -- -- 62
2020-03-20 15:00:00 15.4 12 Sudeste 26 Sudeste 0 -- -- 63
2020-03-20 14:00:00 14 9 Sudeste 22 Sudeste 0 -- -- 66
2020-03-20 13:00:00 12.5 13 Sudeste 23 Sudeste 0 -- -- 72
2020-03-20 12:00:00 11.7 12 Sudeste 23 Sur 0 -- -- 75
2020-03-20 11:00:00 11 12 Sudeste 19 Sur 0 -- -- 77
2020-03-20 10:00:00 9.4 6 Sudeste 15 Este 0 -- -- 84
2020-03-20 09:00:00 7.6 4 Norte 12 Sur 0 -- -- 88
2020-03-20 08:00:00 7 5 Este 9 Nordeste 0 -- -- 87
2020-03-20 07:00:00 7.6 5 Este 12 Sudeste 0 -- -- 87
2020-03-20 06:00:00 8.5 5 Este 15 Sudeste 0 -- -- 85
2020-03-20 05:00:00 8.7 5 Este 10 Sudeste 0 -- -- 85
2020-03-20 04:00:00 8.4 5 Este 8 Este 0 -- -- 88
2020-03-20 03:00:00 7.5 4 Este 12 Nordeste 0 -- -- 90
2020-03-20 02:00:00 7.5 7 Nordeste 11 Nordeste 0 -- -- 91
2020-03-20 01:00:00 8 2 Nordeste 6 Nordeste 0 -- -- 91
2020-03-20 00:00:00 8 4 Sudeste 8 Nordeste 0 -- -- 91
2020-03-19 23:00:00 8.1 5 Nordeste 7 Nordeste 0 -- -- 90
2020-03-19 22:00:00 8.1 0 Calma 4 Este 0 -- -- 86
2020-03-19 21:00:00 9.7 0 Calma 4 Nordeste 0 -- -- 84
2020-03-19 20:00:00 11.9 0 Calma 5 Sudoeste 0 -- -- 80
2020-03-19 19:00:00 13.6 4 Sur 11 Sur 0 -- -- 76
2020-03-19 18:00:00 14.8 4 Sudeste 14 Sudeste 0 -- -- 57
2020-03-19 17:00:00 15.9 6 Sudeste 13 Sudeste 0 -- -- 54
2020-03-19 16:00:00 16.2 5 Nordeste 15 Este 0 -- -- 55
2020-03-19 15:00:00 16.4 8 Nordeste 17 Nordeste 0 -- -- 62
2020-03-19 14:00:00 15.5 7 Nordeste 15 Nordeste 0 -- -- 69
2020-03-19 13:00:00 14 8 Nordeste 12 Nordeste 0 -- -- 75
2020-03-19 12:00:00 12 5 Norte 9 Norte 0 -- -- 89
2020-03-19 11:00:00 9.3 0 Calma 5 Nordeste 0 -- -- 94
2020-03-19 10:00:00 7.5 4 Nordeste 8 Nordeste 0 -- -- 96
2020-03-19 09:00:00 5 0 Calma 8 Este 0 -- -- 96
2020-03-19 08:00:00 4.2 6 Este 12 Nordeste 0 -- -- 94
2020-03-19 07:00:00 4.6 6 Este 12 Nordeste 0 -- -- 94
2020-03-19 06:00:00 4.5 4 Este 8 Sur 0 -- -- 93
2020-03-19 05:00:00 5.9 4 Sudeste 9 Nordeste 0 -- -- 91
2020-03-19 04:00:00 6.8 5 Este 14 Nordeste 0 -- -- 93
2020-03-19 03:00:00 6.2 6 Nordeste 12 Este 0 -- -- 93
2020-03-19 02:00:00 6.4 4 Nordeste 10 Nordeste 0 -- -- 94
2020-03-19 01:00:00 6.7 7 Nordeste 13 Nordeste 0 -- -- 94
2020-03-19 00:00:00 7.4 5 Nordeste 8 Nordeste 0 -- -- 92
2020-03-18 23:00:00 7.6 4 Este 8 Nordeste 0 -- -- 91
2020-03-18 22:00:00 8.7 4 Este 5 Este 0 -- -- 88
2020-03-18 21:00:00 10.4 0 Calma 6 Sudeste 0 -- -- 84
2020-03-18 20:00:00 12.4 3 Nordeste 5 Nordeste 0 -- -- 83
2020-03-18 19:00:00 14.9 3 Este 8 Este 0 -- -- 78
2020-03-18 18:00:00 15.9 5 Nordeste 13 Este 0 -- -- 72
2020-03-18 17:00:00 16.5 6 Nordeste 16 Nordeste 0 -- -- 68
2020-03-18 16:00:00 15.9 8 Nordeste 14 Nordeste 0 -- -- 69
2020-03-18 15:00:00 15.1 10 Nordeste 15 Este 0 -- -- 74
2020-03-18 14:00:00 13.6 11 Nordeste 19 Nordeste 0 -- -- 76
2020-03-18 13:00:00 11.9 10 Nordeste 19 Este 0 -- -- 82
2020-03-18 12:00:00 10.2 11 Nordeste 23 Este 0 -- -- 92
2020-03-18 11:00:00 8.1 14 Nordeste 23 Este 0 -- -- 96
2020-03-18 10:00:00 6.6 13 Nordeste 21 Este 0 -- -- 97
2020-03-18 09:00:00 5.5 10 Nordeste 18 Este 0 -- -- 96
2020-03-18 08:00:00 4.2 10 Nordeste 21 Nordeste 0 -- -- 96
2020-03-18 07:00:00 4.2 10 Nordeste 19 Este 0 -- -- 95
2020-03-18 06:00:00 5.2 11 Nordeste 19 Nordeste 0 -- -- 94
2020-03-18 05:00:00 6.1 11 Nordeste 18 Nordeste 0 -- -- 93
2020-03-18 04:00:00 6.1 10 Nordeste 18 Este 0 -- -- 94
2020-03-18 03:00:00 6.3 9 Nordeste 19 Nordeste 0 -- -- 93
2020-03-18 02:00:00 6.6 11 Nordeste 20 Este 0 -- -- 93
2020-03-18 01:00:00 6.8 8 Nordeste 21 Nordeste 0 -- -- 93
2020-03-18 00:00:00 6.6 6 Nordeste 16 Norte 0 -- -- 92
2020-03-17 23:00:00 7.3 7 Nordeste 27 Sudeste 0 -- -- 90
2020-03-17 22:00:00 8.4 15 Este 28 Este 0 -- -- 90
2020-03-17 21:00:00 9.1 13 Este 35 Nordeste 0 -- -- 88
2020-03-17 20:00:00 10.1 18 Este 34 Este 0 -- -- 84
2020-03-17 19:00:00 11.7 20 Este 35 Este 0 -- -- 80
2020-03-17 18:00:00 12.9 22 Este 43 Este 0 -- -- 74
2020-03-17 17:00:00 13.9 18 Este 39 Este 0 -- -- 72
2020-03-17 16:00:00 14 20 Este 40 Este 0 -- -- 71
2020-03-17 15:00:00 13.5 23 Este 51 Este 0 -- -- 72
2020-03-17 14:00:00 12.3 20 Este 43 Este 0 -- -- 73
2020-03-17 13:00:00 11.2 25 Este 44 Este 0 -- -- 76
2020-03-17 12:00:00 10.5 24 Este 46 Este 0 -- -- 80
2020-03-17 11:00:00 9.1 25 Este 50 Este 0 -- -- 80
2020-03-17 10:00:00 8 24 Este 44 Este 0 -- -- 83
2020-03-17 09:00:00 7 23 Este 48 Este 0 -- -- 84
2020-03-17 08:00:00 5.9 24 Este 49 Sudeste 0 -- -- 87
2020-03-17 07:00:00 5.9 26 Este 56 Este 0 -- -- 85
2020-03-17 06:00:00 5.6 25 Este 56 Este 0 -- -- 85
2020-03-17 05:00:00 5.5 25 Este 50 Este 0 -- -- 85
2020-03-17 04:00:00 5.2 27 Este 52 Este 0 -- -- 85
2020-03-17 03:00:00 5.2 29 Este 54 Este 0 -- -- 84
2020-03-17 02:00:00 5.6 27 Este 57 Este 0 -- -- 80
2020-03-17 01:00:00 5.6 28 Este 51 Este 0 -- -- 81
2020-03-17 00:00:00 5.7 30 Nordeste 56 Nordeste 0 -- -- 80
2020-03-16 23:00:00 5.5 23 Nordeste 48 Este 0 -- -- 81
2020-03-16 22:00:00 5.3 21 Este 46 Este 0 -- -- 80
2020-03-16 21:00:00 5.7 29 Este 52 Nordeste 0 -- -- 75
2020-03-16 20:00:00 5.8 26 Este 49 Este 0 -- -- 75
2020-03-16 19:00:00 6.4 24 Este 48 Este 0 -- -- 73
2020-03-16 18:00:00 7.4 30 Este 52 Este 0 -- -- 68
2020-03-16 17:00:00 7.3 26 Este 51 Este 0 -- -- 69
2020-03-16 16:00:00 7.4 27 Este 53 Este 0 -- -- 69
2020-03-16 15:00:00 8.2 24 Este 42 Este 0 -- -- 70
2020-03-16 14:00:00 6.3 17 Este 38 Este 0 -- -- 74
2020-03-16 13:00:00 5.2 16 Nordeste 35 Nordeste 0 -- -- 81
2020-03-16 12:00:00 3.8 14 Nordeste 31 Nordeste 0.6 -- -- 88
2020-03-16 11:00:00 1.8 3 Nordeste 13 Este 0.6 -- -- 95
2020-03-16 10:00:00 1.2 9 Nordeste 17 Nordeste 1.8 -- -- 94
2020-03-16 09:00:00 0.8 4 Este 13 Nordeste 0.2 -- -- 95
2020-03-16 08:00:00 0.8 9 Norte 17 Norte 1.2 -- -- 95
2020-03-16 07:00:00 0.5 5 Nordeste 18 Nordeste 1.6 -- -- 95
2020-03-16 06:00:00 0.6 10 Nordeste 21 Norte 2.8 -- -- 95
2020-03-16 05:00:00 0.2 9 Norte 20 Nordeste 1.2 -- -- 94
2020-03-16 04:00:00 0.4 10 Nordeste 31 Nordeste 0.8 -- -- 94
2020-03-16 03:00:00 0.7 13 Nordeste 31 Este 1.4 -- -- 93
2020-03-16 02:00:00 1.4 12 Nordeste 39 Norte 0 -- -- 92
2020-03-16 01:00:00 2.3 22 Nordeste 56 Norte 0.6 -- -- 91
2020-03-16 00:00:00 2 17 Norte 42 Norte 2 -- -- 91
2020-03-15 23:00:00 2.8 21 Norte 48 Noroeste 0.6 -- -- 88
2020-03-15 22:00:00 5.2 25 Noroeste 47 Noroeste 0 -- -- 71
2020-03-15 21:00:00 6.8 15 Noroeste 31 Noroeste 0 -- -- 67
2020-03-15 20:00:00 9.1 10 Oeste 26 Oeste 0 -- -- 64
2020-03-15 19:00:00 12.8 17 Oeste 32 Oeste 0 -- -- 52
2020-03-15 18:00:00 13.7 19 Oeste 43 Noroeste 0 -- -- 53
2020-03-15 17:00:00 16.2 26 Oeste 43 Noroeste 0 -- -- 48
2020-03-15 16:00:00 17.9 27 Oeste 53 Oeste 0 -- -- 43
2020-03-15 15:00:00 17.2 24 Oeste 38 Oeste 0 -- -- 47
2020-03-15 14:00:00 17.9 21 Sudoeste 29 Sudoeste 0 -- -- 36
2020-03-15 13:00:00 16.3 12 Oeste 22 Oeste 0 -- -- 43
2020-03-15 12:00:00 14.6 10 Oeste 16 Noroeste 0 -- -- 54
2020-03-15 11:00:00 12.2 5 Oeste 10 Sudoeste 0 -- -- 62
2020-03-15 10:00:00 6.6 0 Calma 7 Nordeste 0 -- -- 75
2020-03-15 09:00:00 1.4 5 Nordeste 10 Nordeste 0 -- -- 85
2020-03-15 08:00:00 -1.5 2 Este 12 Este 0 -- -- 88
2020-03-15 07:00:00 -1.4 5 Nordeste 10 Este 0 -- -- 89
2020-03-15 06:00:00 -1.1 3 Este 8 Nordeste 0 -- -- 88
2020-03-15 05:00:00 -0.7 5 Este 10 Nordeste 0 -- -- 87
2020-03-15 04:00:00 0 6 Este 10 Nordeste 0 -- -- 86
2020-03-15 03:00:00 1.1 8 Nordeste 11 Nordeste 0 -- -- 84
2020-03-15 02:00:00 1.3 4 Nordeste 8 Nordeste 0 -- -- 84
2020-03-15 01:00:00 2.3 4 Nordeste 8 Nordeste 0 -- -- 82
2020-03-15 00:00:00 2.2 4 Nordeste 6 Nordeste 0 -- -- 83
2020-03-14 23:00:00 2.7 2 Este 5 Nordeste 0 -- -- 79
2020-03-14 22:00:00 3.7 3 Nordeste 4 Nordeste 0 -- -- 76
2020-03-14 21:00:00 5.6 0 Calma 3 Sur 0 -- -- 70
2020-03-14 20:00:00 9.5 0 Calma 5 Nordeste 0 -- -- 60
2020-03-14 19:00:00 15.8 3 Nordeste 8 Nordeste 0 -- -- 36
2020-03-14 18:00:00 17 3 Norte 10 Norte 0 -- -- 34
2020-03-14 17:00:00 17.7 4 Norte 9 Este 0 -- -- 37
2020-03-14 16:00:00 17 3 Norte 10 Este 0 -- -- 40
2020-03-14 15:00:00 15.9 4 Nordeste 10 Este 0 -- -- 41
2020-03-14 14:00:00 14.9 5 Noroeste 15 Nordeste 0 -- -- 42
2020-03-14 13:00:00 12.9 5 Nordeste 14 Nordeste 0 -- -- 45
2020-03-14 12:00:00 10.6 7 Nordeste 16 Nordeste 0 -- -- 44
2020-03-14 11:00:00 7.7 10 Nordeste 17 Nordeste 0 -- -- 75
2020-03-14 10:00:00 4.6 9 Nordeste 15 Nordeste 0 -- -- 90
2020-03-14 09:00:00 0.2 3 Sudeste 8 Este 0 -- -- 94
2020-03-14 08:00:00 -1.8 4 Este 7 Este 0 -- -- 94
2020-03-14 07:00:00 -1.2 6 Este 8 Nordeste 0 -- -- 93
2020-03-14 06:00:00 -1.1 4 Sudeste 7 Este 0 -- -- 93
2020-03-14 05:00:00 -0.6 5 Este 8 Este 0 -- -- 92
2020-03-14 04:00:00 0.1 5 Este 12 Nordeste 0 -- -- 91
2020-03-14 03:00:00 1.1 8 Nordeste 13 Este 0 -- -- 91
2020-03-14 02:00:00 1.6 6 Nordeste 14 Nordeste 0 -- -- 89
2020-03-14 01:00:00 2.5 7 Nordeste 15 Nordeste 0 -- -- 87
2020-03-14 00:00:00 4.6 8 Nordeste 17 Nordeste 0 -- -- 83
2020-03-13 23:00:00 4.6 8 Nordeste 14 Nordeste 0 -- -- 85
2020-03-13 22:00:00 5.5 6 Nordeste 14 Este 0 -- -- 84
2020-03-13 21:00:00 6.8 8 Nordeste 19 Nordeste 0 -- -- 79
2020-03-13 20:00:00 8 11 Este 27 Este 0 -- -- 76
2020-03-13 19:00:00 10 12 Este 30 Este 0 -- -- 71
2020-03-13 18:00:00 11.9 15 Este 29 Este 0 -- -- 66
2020-03-13 17:00:00 13 15 Este 30 Nordeste 0 -- -- 65
2020-03-13 16:00:00 13.5 16 Nordeste 28 Este 0 -- -- 65
2020-03-13 15:00:00 13.7 15 Este 32 Este 0 -- -- 64
2020-03-13 14:00:00 13.4 17 Este 34 Este 0 -- -- 67
2020-03-13 13:00:00 12.4 18 Este 33 Este 0 -- -- 69
2020-03-13 12:00:00 11.5 16 Este 37 Este 0 -- -- 71
2020-03-13 11:00:00 10 20 Nordeste 41 Este 0 -- -- 75
2020-03-13 10:00:00 8.8 21 Este 50 Este 0 -- -- 79
2020-03-13 09:00:00 7.6 30 Este 47 Este 0 -- -- 83
2020-03-13 08:00:00 6.5 27 Este 49 Este 0 -- -- 86
2020-03-13 07:00:00 6.5 21 Este 42 Este 0 -- -- 87
2020-03-13 06:00:00 6.8 19 Nordeste 45 Este 0 -- -- 87
2020-03-13 05:00:00 7 16 Nordeste 31 Este 0 -- -- 88
2020-03-13 04:00:00 6.9 16 Este 31 Este 0 -- -- 88
2020-03-13 03:00:00 7.2 17 Este 32 Este 0 -- -- 86
2020-03-13 02:00:00 7.5 16 Este 35 Este 0 -- -- 85
2020-03-13 01:00:00 8 20 Este 43 Este 0 -- -- 84
2020-03-13 00:00:00 8.2 17 Este 41 Este 0 -- -- 86
2020-03-12 23:00:00 8.4 22 Este 41 Este 0 -- -- 86
2020-03-12 22:00:00 9.3 19 Este 39 Este 0 -- -- 85
2020-03-12 21:00:00 10.1 18 Este 44 Este 0 -- -- 84
2020-03-12 20:00:00 11.1 19 Este 47 Este 0 -- -- 80
2020-03-12 19:00:00 12.8 17 Nordeste 33 Este 0 -- -- 75
2020-03-12 18:00:00 14.7 18 Este 33 Este 0 -- -- 72
2020-03-12 17:00:00 16.8 12 Este 22 Este 0 -- -- 70
2020-03-12 16:00:00 18.4 9 Nordeste 18 Este 0 -- -- 67
2020-03-12 15:00:00 18.5 8 Nordeste 17 Este 0 -- -- 65
2020-03-12 14:00:00 18.7 8 Nordeste 14 Nordeste 0 -- -- 62
2020-03-12 13:00:00 18.2 8 Nordeste 14 Nordeste 0 -- -- 63
2020-03-12 12:00:00 18.1 3 Este 7 Nordeste 0 -- -- 63
2020-03-12 11:00:00 15.8 5 Nordeste 10 Nordeste 0 -- -- 71
2020-03-12 10:00:00 11.3 5 Nordeste 9 Este 0 -- -- 83
2020-03-12 09:00:00 8.3 5 Nordeste 8 Este 0 -- -- 87
2020-03-12 08:00:00 6.8 4 Sudeste 8 Este 0 -- -- 87
2020-03-12 07:00:00 7.2 6 Nordeste 15 Nordeste 0 -- -- 86
2020-03-12 06:00:00 7.6 4 Nordeste 10 Nordeste 0 -- -- 84
2020-03-12 05:00:00 6.6 2 Nordeste 4 Nordeste 0 -- -- 86
2020-03-12 04:00:00 6.7 3 Nordeste 6 Nordeste 0 -- -- 85
2020-03-12 03:00:00 6.1 0 Calma 4 Noroeste 0 -- -- 84
2020-03-12 02:00:00 6.7 0 Calma 6 Sur 0 -- -- 83
2020-03-12 01:00:00 7.2 2 Este 6 Noroeste 0 -- -- 82
2020-03-12 00:00:00 7.5 2 Oeste 4 Oeste 0 -- -- 79
2020-03-11 23:00:00 9.1 0 Calma 4 Noroeste 0 -- -- 75
2020-03-11 22:00:00 10.7 0 Calma 4 Noroeste 0 -- -- 73
2020-03-11 21:00:00 13 0 Calma 4 Noroeste 0 -- -- 69
2020-03-11 20:00:00 15.1 0 Calma 10 Sudoeste 0 -- -- 62
2020-03-11 19:00:00 18.3 9 Sudoeste 13 Oeste 0 -- -- 58
2020-03-11 18:00:00 21.9 12 Sudoeste 21 Oeste 0 -- -- 45
2020-03-11 17:00:00 22.3 15 Oeste 24 Oeste 0 -- -- 40
2020-03-11 16:00:00 22 15 Oeste 23 Oeste 0 -- -- 41
2020-03-11 15:00:00 21.4 12 Oeste 20 Oeste 0 -- -- 37
2020-03-11 14:00:00 20.3 12 Oeste 19 Oeste 0 -- -- 36
2020-03-11 13:00:00 18.8 7 Oeste 13 Oeste 0 -- -- 51
2020-03-11 12:00:00 16.5 5 Noroeste 12 Oeste 0 -- -- 60
2020-03-11 11:00:00 13.5 2 Noroeste 6 Nordeste 0 -- -- 63
2020-03-11 10:00:00 8.7 4 Nordeste 9 Nordeste 0 -- -- 76
2020-03-11 09:00:00 3.9 5 Nordeste 10 Nordeste 0 -- -- 82
2020-03-11 08:00:00 0.2 2 Este 4 Noroeste 0 -- -- 89
2020-03-11 07:00:00 0 2 Oeste 3 Oeste 0 -- -- 87
2020-03-11 06:00:00 0.5 2 Oeste 5 Sur 0 -- -- 85
2020-03-11 05:00:00 0.9 0 Calma 4 Oeste 0 -- -- 84
2020-03-11 04:00:00 1.5 0 Calma 4 Sur 0 -- -- 81
2020-03-11 03:00:00 2.7 0 Calma 4 Sur 0 -- -- 78
2020-03-11 02:00:00 4.1 0 Calma 5 Noroeste 0 -- -- 75
2020-03-11 01:00:00 5.3 3 Noroeste 5 Noroeste 0 -- -- 74
2020-03-11 00:00:00 5.8 2 Oeste 9 Oeste 0 -- -- 73
2020-03-10 23:00:00 7.5 3 Oeste 7 Oeste 0 -- -- 67
2020-03-10 22:00:00 9.2 0 Calma 11 Sudoeste 0 -- -- 63
2020-03-10 21:00:00 10.3 7 Sudoeste 12 Sudoeste 0 -- -- 60
2020-03-10 20:00:00 13.3 3 Sudoeste 17 Sudoeste 0 -- -- 63
2020-03-10 19:00:00 17.8 14 Oeste 20 Oeste 0 -- -- 49
2020-03-10 18:00:00 20.2 13 Oeste 24 Oeste 0 -- -- 46
2020-03-10 17:00:00 20.1 15 Oeste 26 Oeste 0 -- -- 45
2020-03-10 16:00:00 19.8 16 Oeste 26 Oeste 0 -- -- 49
2020-03-10 15:00:00 18.9 17 Oeste 26 Oeste 0 -- -- 49
2020-03-10 14:00:00 18 18 Oeste 32 Oeste 0 -- -- 47
2020-03-10 13:00:00 16.1 13 Oeste 22 Oeste 0 -- -- 54
2020-03-10 12:00:00 14.4 14 Oeste 22 Sudoeste 0 -- -- 54
2020-03-10 11:00:00 11.8 11 Sudoeste 16 Oeste 0 -- -- 68
2020-03-10 10:00:00 9.4 4 Sudoeste 10 Sudeste 0 -- -- 81
2020-03-10 09:00:00 4.7 4 Sur 8 Sur 0 -- -- 94
2020-03-10 08:00:00 1.7 0 Calma 4 Sudoeste 0 -- -- 91
2020-03-10 07:00:00 1.9 0 Calma 3 Noroeste 0 -- -- 90
2020-03-10 06:00:00 2.4 0 Calma 3 Oeste 0 -- -- 89
2020-03-10 05:00:00 2.8 0 Calma 5 Noroeste 0 -- -- 90
2020-03-10 04:00:00 3 0 Calma 5 Oeste 0 -- -- 88
2020-03-10 03:00:00 3.6 3 Noroeste 6 Sur 0 -- -- 87
2020-03-10 02:00:00 4.1 0 Calma 3 Noroeste 0 -- -- 86
2020-03-10 01:00:00 3.7 2 Noroeste 5 Noroeste 0 -- -- 86
2020-03-10 00:00:00 3.7 0 Calma 4 Sur 0 -- -- 82
2020-03-09 23:00:00 5 0 Calma 3 Sur 0 -- -- 80
2020-03-09 22:00:00 6.1 4 Sur 6 Oeste 0 -- -- 75
2020-03-09 21:00:00 7 6 Noroeste 11 Sur 0 -- -- 74
2020-03-09 20:00:00 8.4 6 Sur 13 Sur 0 -- -- 71
2020-03-09 19:00:00 13 6 Oeste 15 Oeste 0 -- -- 54
2020-03-09 18:00:00 14.5 10 Oeste 17 Oeste 0 -- -- 47
2020-03-09 17:00:00 14.7 9 Oeste 17 Oeste 0 -- -- 45
2020-03-09 16:00:00 14.3 6 Oeste 19 Noroeste 0 -- -- 45
2020-03-09 15:00:00 13.5 9 Noroeste 21 Noroeste 0 -- -- 44
2020-03-09 14:00:00 12.7 11 Noroeste 24 Noroeste 0 -- -- 50
2020-03-09 13:00:00 11.8 12 Noroeste 21 Noroeste 0 -- -- 57
2020-03-09 12:00:00 9.5 9 Oeste 17 Noroeste 0 -- -- 71
2020-03-09 11:00:00 7.6 12 Noroeste 16 Noroeste 0 -- -- 79
2020-03-09 10:00:00 5.1 6 Oeste 11 Sudoeste 0 -- -- 94
2020-03-09 09:00:00 1.2 3 Oeste 8 Noroeste 0 -- -- 96
2020-03-09 08:00:00 0.2 0 Calma 6 Oeste 0 -- -- 94
2020-03-09 07:00:00 0.6 6 Oeste 12 Oeste 0 -- -- 93
2020-03-09 06:00:00 0.9 5 Oeste 10 Oeste 0 -- -- 92
2020-03-09 05:00:00 2 5 Sudoeste 18 Noroeste 0 -- -- 89
2020-03-09 04:00:00 3.7 14 Noroeste 21 Oeste 0 -- -- 88
2020-03-09 03:00:00 3.7 9 Sudoeste 21 Sudoeste 0 -- -- 91
2020-03-09 02:00:00 4.2 8 Oeste 16 Oeste 0 -- -- 93
2020-03-09 01:00:00 4.2 10 Noroeste 15 Oeste 0 -- -- 93
2020-03-09 00:00:00 5 8 Sudoeste 14 Oeste 0 -- -- 91
2020-03-08 23:00:00 6.1 7 Oeste 27 Oeste 0 -- -- 89
2020-03-08 22:00:00 7.6 15 Oeste 23 Oeste 0 -- -- 88
2020-03-08 21:00:00 8.5 9 Oeste 32 Oeste 0 -- -- 82
2020-03-08 20:00:00 9.9 19 Oeste 30 Oeste 0 -- -- 78
2020-03-08 19:00:00 12.3 15 Oeste 35 Oeste 0 -- -- 71
2020-03-08 18:00:00 13.4 22 Oeste 36 Oeste 0 -- -- 70
2020-03-08 17:00:00 12.8 13 Oeste 27 Oeste 0 -- -- 71
2020-03-08 16:00:00 12.4 19 Oeste 27 Oeste 0 -- -- 68
2020-03-08 15:00:00 12.2 18 Oeste 27 Oeste 0 -- -- 67
2020-03-08 14:00:00 9.9 14 Oeste 27 Oeste 0 -- -- 71
2020-03-08 13:00:00 9.1 15 Oeste 28 Sudoeste 0 -- -- 77
2020-03-08 12:00:00 9.2 17 Oeste 30 Oeste 0 -- -- 80
2020-03-08 11:00:00 6.8 18 Oeste 28 Oeste 0 -- -- 88
2020-03-08 10:00:00 5.4 14 Oeste 26 Sudoeste 0 -- -- 94
2020-03-08 09:00:00 1.3 0 Calma 7 Oeste 0 -- -- 95
2020-03-08 08:00:00 -1.6 0 Calma 3 Sur 0 -- -- 93
2020-03-08 07:00:00 -1.7 2 Sudoeste 5 Sudoeste 0 -- -- 92
2020-03-08 06:00:00 -1.3 0 Calma 6 Noroeste 0 -- -- 92
2020-03-08 05:00:00 -1.2 0 Calma 6 Sudoeste 0 -- -- 91
2020-03-08 04:00:00 -0.7 0 Calma 4 Oeste 0 -- -- 90
2020-03-08 03:00:00 0.8 0 Calma 5 Oeste 0 -- -- 91
2020-03-08 02:00:00 0.8 3 Noroeste 4 Noroeste 0 -- -- 89
2020-03-08 01:00:00 1.6 0 Calma 4 Sudoeste 0 -- -- 87
2020-03-08 00:00:00 3 3 Sur 5 Sudoeste 0 -- -- 86
2020-03-07 23:00:00 3.1 4 Sudoeste 8 Oeste 0 -- -- 85
2020-03-07 22:00:00 3.8 3 Sudoeste 6 Oeste 0 -- -- 80
2020-03-07 21:00:00 5.3 2 Oeste 9 Sur 0 -- -- 76
2020-03-07 20:00:00 7.2 6 Sur 11 Sur 0 -- -- 69
2020-03-07 19:00:00 11.8 8 Sudoeste 13 Sudoeste 0 -- -- 61
2020-03-07 18:00:00 13.3 9 Oeste 19 Noroeste 0 -- -- 55
2020-03-07 17:00:00 13.5 10 Oeste 23 Oeste 0 -- -- 54
2020-03-07 16:00:00 13.1 12 Oeste 21 Oeste 0 -- -- 54
2020-03-07 15:00:00 12.8 9 Oeste 22 Oeste 0 -- -- 57
2020-03-07 14:00:00 11.7 10 Oeste 23 Oeste 0 -- -- 65
2020-03-07 13:00:00 11.2 7 Oeste 16 Sudoeste 0 -- -- 69
2020-03-07 12:00:00 9.6 9 Sudoeste 18 Sudoeste 0 -- -- 75
2020-03-07 11:00:00 7.4 4 Oeste 9 Noroeste 0 -- -- 82
2020-03-07 10:00:00 3.7 3 Sur 5 Sur 0 -- -- 90
2020-03-07 09:00:00 1.2 3 Oeste 8 Oeste 0 -- -- 92
2020-03-07 08:00:00 -0.2 2 Oeste 11 Noroeste 0 -- -- 90
2020-03-07 07:00:00 0 4 Sudoeste 15 Oeste 0 -- -- 89
2020-03-07 06:00:00 -0.6 3 Sudoeste 8 Sudoeste 0 -- -- 90
2020-03-07 05:00:00 -1.3 2 Sudoeste 10 Oeste 0 -- -- 90
2020-03-07 04:00:00 -1.5 5 Sur 9 Noroeste 0 -- -- 88
2020-03-07 03:00:00 -1.2 0 Calma 5 Sudoeste 0 -- -- 87
2020-03-07 02:00:00 -0.6 3 Noroeste 9 Sur 0 -- -- 85
2020-03-07 01:00:00 0.5 8 Noroeste 16 Noroeste 0 -- -- 83
2020-03-07 00:00:00 0.9 3 Oeste 14 Noroeste 0 -- -- 80
2020-03-06 23:00:00 2.5 6 Noroeste 21 Noroeste 0 -- -- 77
2020-03-06 22:00:00 2.7 12 Noroeste 17 Noroeste 0 -- -- 77
2020-03-06 21:00:00 3.2 11 Noroeste 15 Noroeste 0 -- -- 76
2020-03-06 20:00:00 4.7 6 Noroeste 19 Noroeste 0 -- -- 63
2020-03-06 19:00:00 7 13 Noroeste 41 Noroeste 0 -- -- 54
2020-03-06 18:00:00 8.9 27 Noroeste 53 Noroeste 0 -- -- 50
2020-03-06 17:00:00 9.3 33 Noroeste 46 Noroeste 0 -- -- 54
2020-03-06 16:00:00 9.2 26 Noroeste 48 Noroeste 0 -- -- 51
2020-03-06 15:00:00 10.1 30 Norte 48 Norte 0 -- -- 46
2020-03-06 14:00:00 8.9 28 Noroeste 47 Noroeste 0 -- -- 56
2020-03-06 13:00:00 7.8 23 Noroeste 44 Norte 0 -- -- 58
2020-03-06 12:00:00 8.2 27 Noroeste 51 Noroeste 0 -- -- 55
2020-03-06 11:00:00 7.3 31 Noroeste 57 Norte 0 -- -- 63
2020-03-06 10:00:00 5.6 26 Noroeste 38 Oeste 0 -- -- 77
2020-03-06 09:00:00 3.9 24 Oeste 33 Oeste 0 -- -- 82
2020-03-06 08:00:00 3.3 15 Oeste 31 Oeste 0 -- -- 87
2020-03-06 07:00:00 3.6 21 Oeste 33 Noroeste 0 -- -- 89
2020-03-06 06:00:00 3 15 Noroeste 29 Oeste 0 -- -- 92
2020-03-06 05:00:00 3.8 20 Oeste 31 Oeste 0 -- -- 93
2020-03-06 04:00:00 4.2 20 Oeste 33 Oeste 0 -- -- 91
2020-03-06 03:00:00 4.6 21 Oeste 35 Oeste 0 -- -- 90
2020-03-06 02:00:00 4.5 19 Oeste 34 Sudoeste 0 -- -- 89
2020-03-06 01:00:00 3.9 14 Oeste 27 Oeste 0 -- -- 89
2020-03-06 00:00:00 3.3 10 Oeste 19 Sudoeste 0 -- -- 89
2020-03-05 23:00:00 3.7 8 Oeste 19 Oeste 0 -- -- 85
2020-03-05 22:00:00 4.8 6 Noroeste 29 Noroeste 0 -- -- 81
2020-03-05 21:00:00 6.3 20 Noroeste 31 Noroeste 0 -- -- 76
2020-03-05 20:00:00 7 21 Noroeste 34 Noroeste 0 -- -- 74
2020-03-05 19:00:00 9 20 Noroeste 42 Noroeste 0 -- -- 67
2020-03-05 18:00:00 10.9 30 Noroeste 44 Noroeste 0 -- -- 61
2020-03-05 17:00:00 11.5 21 Noroeste 41 Noroeste 0.2 -- -- 69
2020-03-05 16:00:00 10.5 33 Oeste 52 Oeste 0.6 -- -- 75
2020-03-05 15:00:00 11.1 30 Oeste 48 Oeste 0 -- -- 67
2020-03-05 14:00:00 11.3 36 Oeste 61 Oeste 0 -- -- 67
2020-03-05 13:00:00 11.1 33 Oeste 55 Oeste 0 -- -- 69
2020-03-05 12:00:00 10 35 Oeste 56 Oeste 0 -- -- 72
2020-03-05 11:00:00 9.2 40 Oeste 59 Oeste 0 -- -- 78
2020-03-05 10:00:00 7.5 27 Oeste 56 Noroeste 0.2 -- -- 84
2020-03-05 09:00:00 9.3 40 Oeste 62 Oeste 0.8 -- -- 88
2020-03-05 08:00:00 10.2 36 Oeste 63 Sudoeste 0 -- -- 87
2020-03-05 07:00:00 10.4 37 Oeste 55 Sudoeste 0 -- -- 85
2020-03-05 06:00:00 10.3 20 Oeste 39 Oeste 0 -- -- 90
2020-03-05 05:00:00 10.5 25 Oeste 49 Oeste 0 -- -- 90
2020-03-05 04:00:00 10.5 22 Oeste 39 Oeste 0.2 -- -- 92
2020-03-05 03:00:00 11.1 26 Oeste 39 Oeste 0 -- -- 89
2020-03-05 02:00:00 11.1 24 Oeste 41 Sudoeste 0 -- -- 90
2020-03-05 01:00:00 11.4 23 Sudoeste 39 Sudoeste 0 -- -- 87
2020-03-05 00:00:00 11.4 15 Sudoeste 26 Oeste 0 -- -- 87
2020-03-04 23:00:00 11.4 18 Oeste 31 Oeste 0 -- -- 85
2020-03-04 22:00:00 11.5 15 Oeste 26 Oeste 0 -- -- 83
2020-03-04 21:00:00 11.4 14 Oeste 31 Oeste 0 -- -- 83
2020-03-04 20:00:00 11.9 21 Oeste 38 Oeste 0 -- -- 81
2020-03-04 19:00:00 12.6 19 Oeste 42 Oeste 0 -- -- 78
2020-03-04 18:00:00 13.6 28 Oeste 44 Oeste 0 -- -- 74
2020-03-04 17:00:00 13.7 26 Oeste 42 Oeste 0 -- -- 74
2020-03-04 16:00:00 14.2 24 Oeste 43 Oeste 0 -- -- 73
2020-03-04 15:00:00 15.3 24 Oeste 40 Oeste 0 -- -- 70
2020-03-04 14:00:00 15.4 24 Oeste 38 Oeste 0 -- -- 70
2020-03-04 13:00:00 14.1 23 Oeste 37 Oeste 0 -- -- 73
2020-03-04 12:00:00 12.8 25 Oeste 39 Oeste 0 -- -- 78
2020-03-04 11:00:00 12.3 24 Oeste 40 Oeste 0 -- -- 83
2020-03-04 10:00:00 10.6 18 Oeste 30 Oeste 0 -- -- 90
2020-03-04 09:00:00 9.9 15 Oeste 27 Oeste 0 -- -- 92
2020-03-04 08:00:00 9.8 19 Oeste 31 Oeste 0 -- -- 93
2020-03-04 07:00:00 9.7 17 Oeste 35 Sudoeste 0 -- -- 92
2020-03-04 06:00:00 10.5 19 Oeste 46 Oeste 0 -- -- 92
2020-03-04 05:00:00 10.8 19 Oeste 33 Oeste 0 -- -- 91
2020-03-04 04:00:00 10.9 21 Oeste 34 Sudoeste 0 -- -- 92
2020-03-04 03:00:00 10.8 19 Oeste 32 Oeste 0 -- -- 92
2020-03-04 02:00:00 10.9 20 Oeste 30 Oeste 0 -- -- 93
2020-03-04 01:00:00 10.2 13 Oeste 19 Oeste 0 -- -- 91
2020-03-04 00:00:00 9.7 4 Sudoeste 12 Sudoeste 0 -- -- 88